createdAt,value
2023-03-19T00:13:49.398Z,49.21
2023-03-19T00:28:50.876Z,48.87
2023-03-19T00:43:52.268Z,49.50
2023-03-19T00:58:53.608Z,49.16
2023-03-19T01:13:54.996Z,48.83
2023-03-19T01:28:56.371Z,49.22
2023-03-19T01:43:57.717Z,48.90
2023-03-19T01:58:59.100Z,49.00
2023-03-19T02:14:00.517Z,48.76
2023-03-19T02:29:01.892Z,49.05
2023-03-19T02:44:03.320Z,49.06
2023-03-19T02:59:04.720Z,49.47
2023-03-19T03:14:06.118Z,48.84
2023-03-19T03:29:07.515Z,48.68
2023-03-19T03:44:08.961Z,48.97
2023-03-19T03:59:10.344Z,49.11
2023-03-19T04:14:11.724Z,49.04
2023-03-19T04:29:13.108Z,48.90
2023-03-19T04:44:14.519Z,48.78
2023-03-19T04:59:15.992Z,48.39
2023-03-19T05:14:17.364Z,48.91
2023-03-19T05:29:18.722Z,48.70
2023-03-19T05:44:20.115Z,48.49
2023-03-19T05:59:21.525Z,48.58
2023-03-19T06:14:23.001Z,49.25
2023-03-19T06:29:24.428Z,49.14
2023-03-19T06:44:25.848Z,49.23
2023-03-19T06:59:27.361Z,48.81
2023-03-19T07:14:28.744Z,48.16
2023-03-19T07:29:30.266Z,48.41
2023-03-19T07:44:31.732Z,48.64
2023-03-19T07:59:33.197Z,48.66
2023-03-19T08:14:34.577Z,48.48
2023-03-19T08:29:35.960Z,49.24
2023-03-19T08:44:37.343Z,49.19
2023-03-19T08:59:38.721Z,48.97
2023-03-19T09:14:40.114Z,49.13
2023-03-19T09:29:41.533Z,49.45
2023-03-19T09:44:42.989Z,50.59
2023-03-19T09:59:44.358Z,51.16
2023-03-19T10:14:45.699Z,50.74
2023-03-19T10:29:47.082Z,50.75
2023-03-19T10:44:48.444Z,50.74
2023-03-19T10:59:49.846Z,50.70
2023-03-19T11:14:51.252Z,50.21
2023-03-19T11:29:52.611Z,50.47
2023-03-19T11:44:53.987Z,50.61
2023-03-19T11:59:55.376Z,49.87
2023-03-19T12:14:56.753Z,50.12
2023-03-19T12:29:58.116Z,50.46
2023-03-19T12:44:59.500Z,52.02
2023-03-19T13:00:00.891Z,53.01
2023-03-19T13:15:02.289Z,52.63
2023-03-19T13:30:03.680Z,52.33
2023-03-19T13:45:05.055Z,51.38
2023-03-19T14:00:06.442Z,51.43
2023-03-19T14:15:07.826Z,50.94
2023-03-19T14:30:09.252Z,51.07
2023-03-19T14:45:12.609Z,51.68
2023-03-19T15:00:14.234Z,52.84
2023-03-19T15:15:15.701Z,52.54
2023-03-19T15:30:18.780Z,52.23
2023-03-19T15:45:20.465Z,52.45
2023-03-19T16:00:21.866Z,52.69
2023-03-19T16:15:23.430Z,52.29
2023-03-19T16:30:24.831Z,52.76
2023-03-19T16:45:26.210Z,52.80
2023-03-19T17:00:28.022Z,52.75
2023-03-19T17:15:30.457Z,52.82
2023-03-19T17:30:35.183Z,52.75
2023-03-19T17:45:36.816Z,52.61
2023-03-19T18:00:38.587Z,52.20
2023-03-19T18:15:40.333Z,51.91
2023-03-19T18:30:41.732Z,52.32
2023-03-19T18:45:43.238Z,52.44
2023-03-19T19:00:44.738Z,52.33
2023-03-19T19:15:46.251Z,52.46
2023-03-19T19:30:47.725Z,52.54
2023-03-19T19:45:49.186Z,52.44
2023-03-19T20:01:02.832Z,52.78
2023-03-19T20:16:05.552Z,52.63
2023-03-19T20:31:07.059Z,52.52
2023-03-19T20:46:08.501Z,52.88
2023-03-19T21:01:10.195Z,52.99
2023-03-19T21:16:11.710Z,52.38
2023-03-19T21:31:13.132Z,52.36
2023-03-19T21:46:24.167Z,52.62
2023-03-19T22:01:26.378Z,52.64
2023-03-19T22:16:27.798Z,52.67
2023-03-19T22:31:29.226Z,52.98
2023-03-19T22:46:30.935Z,52.51
2023-03-19T23:01:32.434Z,52.70
2023-03-19T23:16:33.823Z,52.29
2023-03-19T23:31:35.181Z,52.11
2023-03-19T23:46:36.626Z,52.53
